sensor_id;sensor_type;location;lat;lon;timestamp;pressure;altitude;pressure_sealevel;temperature;humidity
51781;BME280;37844;57.126;24.288;2023-01-05T00:02:21;100229.19;;;-1.53;100.00
51781;BME280;37844;57.126;24.288;2023-01-05T00:04:46;100229.34;;;-1.50;100.00
51781;BME280;37844;57.126;24.288;2023-01-05T00:07:12;100218.34;;;-1.50;100.00
51781;BME280;37844;57.126;24.288;2023-01-05T00:09:37;100239.63;;;-1.46;100.00
51781;BME280;37844;57.126;24.288;2023-01-05T00:12:04;100211.44;;;-1.54;100.00
51781;BME280;37844;57.126;24.288;2023-01-05T00:14:48;100205.41;;;-1.56;100.00
51781;BME280;37844;57.126;24.288;2023-01-05T00:17:32;100217.50;;;-1.51;100.00
51781;BME280;37844;57.126;24.288;2023-01-05T00:20:19;100204.53;;;-1.40;100.00
51781;BME280;37844;57.126;24.288;2023-01-05T00:23:04;100194.66;;;-1.52;100.00
51781;BME280;37844;57.126;24.288;2023-01-05T00:25:31;100199.09;;;-1.48;100.00
51781;BME280;37844;57.126;24.288;2023-01-05T00:27:58;100201.63;;;-1.48;100.00
51781;BME280;37844;57.126;24.288;2023-01-05T00:30:32;100183.84;;;-1.50;100.00
51781;BME280;37844;57.126;24.288;2023-01-05T00:32:58;100182.34;;;-1.46;100.00
51781;BME280;37844;57.126;24.288;2023-01-05T00:35:24;100153.69;;;-1.63;100.00
51781;BME280;37844;57.126;24.288;2023-01-05T00:37:50;100175.63;;;-1.62;100.00
51781;BME280;37844;57.126;24.288;2023-01-05T00:40:17;100181.78;;;-1.57;100.00
51781;BME280;37844;57.126;24.288;2023-01-05T00:42:43;100169.09;;;-1.58;100.00
51781;BME280;37844;57.126;24.288;2023-01-05T00:45:11;100169.63;;;-1.47;100.00
51781;BME280;37844;57.126;24.288;2023-01-05T00:47:37;100171.84;;;-1.54;100.00
51781;BME280;37844;57.126;24.288;2023-01-05T00:50:03;100176.91;;;-1.54;100.00
51781;BME280;37844;57.126;24.288;2023-01-05T00:52:32;100166.41;;;-1.61;100.00
51781;BME280;37844;57.126;24.288;2023-01-05T00:54:57;100157.88;;;-1.63;100.00
51781;BME280;37844;57.126;24.288;2023-01-05T00:57:23;100152.09;;;-1.61;100.00
51781;BME280;37844;57.126;24.288;2023-01-05T00:59:48;100152.25;;;-1.58;100.00
51781;BME280;37844;57.126;24.288;2023-01-05T01:02:14;100137.44;;;-1.52;100.00
51781;BME280;37844;57.126;24.288;2023-01-05T01:04:40;100144.69;;;-1.58;100.00
51781;BME280;37844;57.126;24.288;2023-01-05T01:07:05;100152.59;;;-1.52;100.00
51781;BME280;37844;57.126;24.288;2023-01-05T01:09:31;100154.88;;;-1.56;100.00
51781;BME280;37844;57.126;24.288;2023-01-05T01:11:57;100141.53;;;-1.54;100.00
51781;BME280;37844;57.126;24.288;2023-01-05T01:14:22;100144.53;;;-1.61;100.00
51781;BME280;37844;57.126;24.288;2023-01-05T01:16:48;100122.75;;;-1.59;100.00
51781;BME280;37844;57.126;24.288;2023-01-05T01:19:19;100124.59;;;-1.55;100.00
51781;BME280;37844;57.126;24.288;2023-01-05T01:21:44;100125.81;;;-1.64;100.00
51781;BME280;37844;57.126;24.288;2023-01-05T01:24:26;100118.59;;;-1.57;100.00
51781;BME280;37844;57.126;24.288;2023-01-05T01:26:53;100122.31;;;-1.66;100.00
51781;BME280;37844;57.126;24.288;2023-01-05T01:29:19;100108.72;;;-1.68;100.00
51781;BME280;37844;57.126;24.288;2023-01-05T01:31:49;100109.06;;;-1.62;100.00
51781;BME280;37844;57.126;24.288;2023-01-05T01:34:15;100098.00;;;-1.64;100.00
51781;BME280;37844;57.126;24.288;2023-01-05T01:36:41;100096.44;;;-1.62;100.00
51781;BME280;37844;57.126;24.288;2023-01-05T01:39:07;100100.84;;;-1.58;100.00
51781;BME280;37844;57.126;24.288;2023-01-05T01:41:33;100084.13;;;-1.56;100.00
51781;BME280;37844;57.126;24.288;2023-01-05T01:43:59;100076.84;;;-1.66;100.00
51781;BME280;37844;57.126;24.288;2023-01-05T01:46:26;100081.97;;;-1.65;100.00
51781;BME280;37844;57.126;24.288;2023-01-05T01:48:58;100091.47;;;-1.61;100.00
51781;BME280;37844;57.126;24.288;2023-01-05T01:51:42;100083.03;;;-1.61;100.00
51781;BME280;37844;57.126;24.288;2023-01-05T01:54:12;100068.53;;;-1.64;100.00
51781;BME280;37844;57.126;24.288;2023-01-05T01:56:43;100071.25;;;-1.77;100.00
51781;BME280;37844;57.126;24.288;2023-01-05T01:59:10;100089.09;;;-1.74;100.00
51781;BME280;37844;57.126;24.288;2023-01-05T02:01:36;100081.03;;;-1.67;100.00
51781;BME280;37844;57.126;24.288;2023-01-05T02:04:02;100074.25;;;-1.68;100.00
51781;BME280;37844;57.126;24.288;2023-01-05T02:06:29;100084.41;;;-1.66;100.00
51781;BME280;37844;57.126;24.288;2023-01-05T02:08:54;100074.25;;;-1.68;100.00
51781;BME280;37844;57.126;24.288;2023-01-05T02:11:42;100062.34;;;-1.71;100.00
51781;BME280;37844;57.126;24.288;2023-01-05T02:36:00;100063.19;;;-1.70;100.00
51781;BME280;37844;57.126;24.288;2023-01-05T02:38:37;100050.97;;;-1.79;100.00
51781;BME280;37844;57.126;24.288;2023-01-05T02:41:12;100039.66;;;-1.69;100.00
51781;BME280;37844;57.126;24.288;2023-01-05T02:43:43;100043.63;;;-1.74;100.00
51781;BME280;37844;57.126;24.288;2023-01-05T02:46:09;100046.53;;;-1.66;100.00
51781;BME280;37844;57.126;24.288;2023-01-05T02:48:35;100040.72;;;-1.82;100.00
51781;BME280;37844;57.126;24.288;2023-01-05T02:51:05;100039.38;;;-1.75;100.00
51781;BME280;37844;57.126;24.288;2023-01-05T02:53:42;100050.25;;;-1.76;100.00
51781;BME280;37844;57.126;24.288;2023-01-05T02:56:19;100033.59;;;-1.73;100.00
51781;BME280;37844;57.126;24.288;2023-01-05T02:58:51;100040.22;;;-1.75;100.00
51781;BME280;37844;57.126;24.288;2023-01-05T03:01:24;100033.03;;;-1.83;100.00
51781;BME280;37844;57.126;24.288;2023-01-05T03:04:15;100040.72;;;-1.82;100.00
51781;BME280;37844;57.126;24.288;2023-01-05T03:09:14;100033.69;;;-1.87;100.00
51781;BME280;37844;57.126;24.288;2023-01-05T03:11:47;100030.75;;;-1.79;100.00
51781;BME280;37844;57.126;24.288;2023-01-05T03:14:55;100029.97;;;-1.94;100.00
51781;BME280;37844;57.126;24.288;2023-01-05T03:17:38;100027.03;;;-1.85;100.00
51781;BME280;37844;57.126;24.288;2023-01-05T03:20:06;100033.03;;;-1.83;100.00
51781;BME280;37844;57.126;24.288;2023-01-05T03:22:41;100037.38;;;-1.81;100.00
51781;BME280;37844;57.126;24.288;2023-01-05T03:25:29;100028.78;;;-1.84;100.00
51781;BME280;37844;57.126;24.288;2023-01-05T03:31:50;100044.09;;;-1.98;100.00
51781;BME280;37844;57.126;24.288;2023-01-05T03:37:59;100048.28;;;-1.98;100.00
51781;BME280;37844;57.126;24.288;2023-01-05T03:40:28;100044.19;;;-1.96;100.00
51781;BME280;37844;57.126;24.288;2023-01-05T03:42:55;100040.47;;;-2.03;100.00
51781;BME280;37844;57.126;24.288;2023-01-05T03:45:23;100040.47;;;-2.03;100.00
51781;BME280;37844;57.126;24.288;2023-01-05T03:47:49;100042.19;;;-2.02;100.00
51781;BME280;37844;57.126;24.288;2023-01-05T03:50:15;100031.56;;;-1.96;100.00
51781;BME280;37844;57.126;24.288;2023-01-05T03:52:41;100031.41;;;-1.99;100.00
51781;BME280;37844;57.126;24.288;2023-01-05T03:55:06;100042.38;;;-1.99;100.00
51781;BME280;37844;57.126;24.288;2023-01-05T03:57:32;100045.38;;;-2.06;100.00
51781;BME280;37844;57.126;24.288;2023-01-05T03:59:57;100034.16;;;-2.11;100.00
51781;BME280;37844;57.126;24.288;2023-01-05T04:02:23;100048.59;;;-2.08;100.00
51781;BME280;37844;57.126;24.288;2023-01-05T04:04:48;100040.56;;;-2.01;100.00
51781;BME280;37844;57.126;24.288;2023-01-05T04:07:14;100054.13;;;-1.99;100.00
51781;BME280;37844;57.126;24.288;2023-01-05T04:09:39;100039.75;;;-2.00;100.00
51781;BME280;37844;57.126;24.288;2023-01-05T04:12:05;100042.13;;;-2.03;100.00
51781;BME280;37844;57.126;24.288;2023-01-05T04:14:30;100037.09;;;-2.03;100.00
51781;BME280;37844;57.126;24.288;2023-01-05T04:16:56;100042.63;;;-1.94;100.00
51781;BME280;37844;57.126;24.288;2023-01-05T04:19:21;100049.72;;;-2.03;100.00
51781;BME280;37844;57.126;24.288;2023-01-05T04:21:47;100026.13;;;-2.20;100.00
51781;BME280;37844;57.126;24.288;2023-01-05T04:24:12;100039.75;;;-2.17;100.00
51781;BME280;37844;57.126;24.288;2023-01-05T04:26:38;100043.53;;;-2.25;100.00
51781;BME280;37844;57.126;24.288;2023-01-05T04:29:04;100046.31;;;-2.20;100.00
51781;BME280;37844;57.126;24.288;2023-01-05T04:31:30;100045.88;;;-2.28;100.00
51781;BME280;37844;57.126;24.288;2023-01-05T04:33:56;100042.50;;;-2.28;100.00
51781;BME280;37844;57.126;24.288;2023-01-05T04:36:22;100041.28;;;-2.35;100.00
51781;BME280;37844;57.126;24.288;2023-01-05T04:38:47;100049.91;;;-2.31;100.00
51781;BME280;37844;57.126;24.288;2023-01-05T04:41:13;100043.53;;;-2.25;100.00
51781;BME280;37844;57.126;24.288;2023-01-05T04:43:38;100059.66;;;-2.38;100.00
51781;BME280;37844;57.126;24.288;2023-01-05T04:46:05;100047.06;;;-2.38;100.00
51781;BME280;37844;57.126;24.288;2023-01-05T04:48:30;100049.13;;;-2.30;100.00
51781;BME280;37844;57.126;24.288;2023-01-05T04:50:56;100105.91;;;-2.39;100.00
51781;BME280;37844;57.126;24.288;2023-01-05T04:53:21;100061.88;;;-2.44;100.00
51781;BME280;37844;57.126;24.288;2023-01-05T04:55:50;100057.59;;;-2.45;100.00
51781;BME280;37844;57.126;24.288;2023-01-05T04:58:17;100062.03;;;-2.41;100.00
51781;BME280;37844;57.126;24.288;2023-01-05T05:00:42;100049.31;;;-2.42;100.00
51781;BME280;37844;57.126;24.288;2023-01-05T05:03:08;100068.50;;;-2.46;100.00
51781;BME280;37844;57.126;24.288;2023-01-05T05:05:33;100048.78;;;-2.53;100.00
51781;BME280;37844;57.126;24.288;2023-01-05T05:07:59;100048.69;;;-2.54;100.00
51781;BME280;37844;57.126;24.288;2023-01-05T05:10:24;100062.97;;;-2.55;100.00
51781;BME280;37844;57.126;24.288;2023-01-05T05:12:50;100057.66;;;-2.60;100.00
51781;BME280;37844;57.126;24.288;2023-01-05T05:15:22;100060.63;;;-2.67;100.00
51781;BME280;37844;57.126;24.288;2023-01-05T05:17:47;100061.13;;;-2.58;100.00
51781;BME280;37844;57.126;24.288;2023-01-05T05:20:13;100065.47;;;-2.55;100.00
51781;BME280;37844;57.126;24.288;2023-01-05T05:22:38;100064.69;;;-2.54;100.00
51781;BME280;37844;57.126;24.288;2023-01-05T05:25:04;100076.53;;;-2.53;100.00
51781;BME280;37844;57.126;24.288;2023-01-05T05:27:30;100088.53;;;-2.49;100.00
51781;BME280;37844;57.126;24.288;2023-01-05T05:29:56;100074.38;;;-2.62;100.00
51781;BME280;37844;57.126;24.288;2023-01-05T05:32:21;100084.56;;;-2.60;100.00
51781;BME280;37844;57.126;24.288;2023-01-05T05:34:47;100084.28;;;-2.65;100.00
51781;BME280;37844;57.126;24.288;2023-01-05T05:37:12;100086.00;;;-2.64;100.00
51781;BME280;37844;57.126;24.288;2023-01-05T05:39:38;100103.41;;;-2.68;100.00
51781;BME280;37844;57.126;24.288;2023-01-05T05:42:03;100099.28;;;-2.68;100.00
51781;BME280;37844;57.126;24.288;2023-01-05T05:44:28;100095.69;;;-2.71;100.00
51781;BME280;37844;57.126;24.288;2023-01-05T05:46:54;100114.59;;;-2.80;100.00
51781;BME280;37844;57.126;24.288;2023-01-05T05:49:19;100098.56;;;-2.80;100.00
51781;BME280;37844;57.126;24.288;2023-01-05T05:51:45;100108.31;;;-2.71;100.00
51781;BME280;37844;57.126;24.288;2023-01-05T05:54:10;100102.16;;;-2.77;100.00
51781;BME280;37844;57.126;24.288;2023-01-05T05:56:36;100107.19;;;-2.77;100.00
51781;BME280;37844;57.126;24.288;2023-01-05T05:59:01;100105.25;;;-2.81;100.00
51781;BME280;37844;57.126;24.288;2023-01-05T06:01:26;100108.66;;;-2.80;100.00
51781;BME280;37844;57.126;24.288;2023-01-05T06:03:52;100133.81;;;-2.82;100.00
51781;BME280;37844;57.126;24.288;2023-01-05T06:06:17;100110.41;;;-2.79;100.00
51781;BME280;37844;57.126;24.288;2023-01-05T06:08:43;100116.84;;;-2.84;100.00
51781;BME280;37844;57.126;24.288;2023-01-05T06:11:09;100113.97;;;-2.90;100.00
51781;BME280;37844;57.126;24.288;2023-01-05T06:13:34;100114.13;;;-2.87;100.00
51781;BME280;37844;57.126;24.288;2023-01-05T06:16:00;100113.47;;;-2.85;100.00
51781;BME280;37844;57.126;24.288;2023-01-05T06:18:26;100109.19;;;-2.86;100.00
51781;BME280;37844;57.126;24.288;2023-01-05T06:20:52;100122.94;;;-2.95;100.00
51781;BME280;37844;57.126;24.288;2023-01-05T06:23:18;100112.00;;;-2.96;100.00
51781;BME280;37844;57.126;24.288;2023-01-05T06:25:43;100105.38;;;-2.94;100.00
51781;BME280;37844;57.126;24.288;2023-01-05T06:28:09;100110.44;;;-2.94;100.00
51781;BME280;37844;57.126;24.288;2023-01-05T06:30:35;100132.59;;;-3.03;100.00
51781;BME280;37844;57.126;24.288;2023-01-05T06:33:00;100126.84;;;-3.01;100.00
51781;BME280;37844;57.126;24.288;2023-01-05T06:35:26;100144.22;;;-2.90;100.00
51781;BME280;37844;57.126;24.288;2023-01-05T06:37:51;100145.91;;;-2.91;100.00
51781;BME280;37844;57.126;24.288;2023-01-05T06:40:17;100117.78;;;-2.97;100.00
51781;BME280;37844;57.126;24.288;2023-01-05T06:42:42;100153.09;;;-2.97;100.00
51781;BME280;37844;57.126;24.288;2023-01-05T06:45:11;100163.81;;;-3.01;100.00
51781;BME280;37844;57.126;24.288;2023-01-05T06:47:37;100145.69;;;-3.09;100.00
51781;BME280;37844;57.126;24.288;2023-01-05T06:50:03;100157.59;;;-3.06;100.00
51781;BME280;37844;57.126;24.288;2023-01-05T06:52:29;100153.47;;;-3.06;100.00
51781;BME280;37844;57.126;24.288;2023-01-05T06:54:54;100164.41;;;-3.05;100.00
51781;BME280;37844;57.126;24.288;2023-01-05T06:57:20;100169.78;;;-3.14;100.00
51781;BME280;37844;57.126;24.288;2023-01-05T06:59:46;100174.97;;;-3.11;100.00
51781;BME280;37844;57.126;24.288;2023-01-05T07:02:13;100168.38;;;-3.09;100.00
51781;BME280;37844;57.126;24.288;2023-01-05T07:04:39;100168.66;;;-3.04;100.00
51781;BME280;37844;57.126;24.288;2023-01-05T07:07:05;100173.69;;;-3.04;100.00
51781;BME280;37844;57.126;24.288;2023-01-05T07:09:30;100177.50;;;-3.11;100.00
51781;BME280;37844;57.126;24.288;2023-01-05T07:11:56;100188.81;;;-3.19;100.00
51781;BME280;37844;57.126;24.288;2023-01-05T07:14:21;100180.44;;;-3.18;100.00
51781;BME280;37844;57.126;24.288;2023-01-05T07:16:46;100199.06;;;-3.16;100.00
51781;BME280;37844;57.126;24.288;2023-01-05T07:19:12;100191.91;;;-3.23;100.00
51781;BME280;37844;57.126;24.288;2023-01-05T07:21:37;100202.28;;;-3.18;100.00
51781;BME280;37844;57.126;24.288;2023-01-05T07:24:03;100213.72;;;-3.24;100.00
51781;BME280;37844;57.126;24.288;2023-01-05T07:26:29;100203.66;;;-3.24;100.00
51781;BME280;37844;57.126;24.288;2023-01-05T07:28:54;100236.72;;;-3.32;100.00
51781;BME280;37844;57.126;24.288;2023-01-05T07:31:20;100221.53;;;-3.34;100.00
51781;BME280;37844;57.126;24.288;2023-01-05T07:33:45;100216.97;;;-3.39;100.00
51781;BME280;37844;57.126;24.288;2023-01-05T07:36:11;100219.88;;;-3.33;100.00
51781;BME280;37844;57.126;24.288;2023-01-05T07:38:37;100222.22;;;-3.36;100.00
51781;BME280;37844;57.126;24.288;2023-01-05T07:41:03;100235.13;;;-3.45;100.00
51781;BME280;37844;57.126;24.288;2023-01-05T07:43:28;100239.59;;;-3.41;100.00
51781;BME280;37844;57.126;24.288;2023-01-05T07:46:02;100243.06;;;-3.39;100.00
51781;BME280;37844;57.126;24.288;2023-01-05T07:48:28;100249.88;;;-3.51;100.00
51781;BME280;37844;57.126;24.288;2023-01-05T07:51:01;100247.84;;;-3.44;100.00
51781;BME280;37844;57.126;24.288;2023-01-05T07:53:28;100259.81;;;-3.39;100.00
51781;BME280;37844;57.126;24.288;2023-01-05T07:55:58;100259.22;;;-3.35;100.00
51781;BME280;37844;57.126;24.288;2023-01-05T07:58:25;100267.03;;;-3.46;100.00
51781;BME280;37844;57.126;24.288;2023-01-05T08:00:50;100281.84;;;-3.50;100.00
51781;BME280;37844;57.126;24.288;2023-01-05T08:03:16;100274.94;;;-3.39;100.00
51781;BME280;37844;57.126;24.288;2023-01-05T08:05:41;100281.28;;;-3.46;100.00
51781;BME280;37844;57.126;24.288;2023-01-05T08:08:07;100280.69;;;-3.55;100.00
51781;BME280;37844;57.126;24.288;2023-01-05T08:10:32;100285.13;;;-3.51;100.00
51781;BME280;37844;57.126;24.288;2023-01-05T08:13:05;100291.25;;;-3.61;100.00
51781;BME280;37844;57.126;24.288;2023-01-05T08:15:51;100287.69;;;-3.65;100.00
51781;BME280;37844;57.126;24.288;2023-01-05T08:18:17;100290.69;;;-3.57;100.00
51781;BME280;37844;57.126;24.288;2023-01-05T08:20:49;100309.84;;;-3.59;100.00
51781;BME280;37844;57.126;24.288;2023-01-05T08:23:14;100305.78;;;-3.70;100.00
51781;BME280;37844;57.126;24.288;2023-01-05T08:25:40;100299.03;;;-3.71;100.00
51781;BME280;37844;57.126;24.288;2023-01-05T08:28:05;100300.75;;;-3.70;100.00
51781;BME280;37844;57.126;24.288;2023-01-05T08:30:30;100322.84;;;-3.66;100.00
51781;BME280;37844;57.126;24.288;2023-01-05T08:32:56;100323.81;;;-3.64;100.00
51781;BME280;37844;57.126;24.288;2023-01-05T08:35:21;100323.63;;;-3.67;100.00
51781;BME280;37844;57.126;24.288;2023-01-05T08:37:47;100332.91;;;-3.66;100.00
51781;BME280;37844;57.126;24.288;2023-01-05T08:40:12;100323.22;;;-3.73;100.00
51781;BME280;37844;57.126;24.288;2023-01-05T08:42:38;100346.66;;;-3.61;100.00
51781;BME280;37844;57.126;24.288;2023-01-05T08:45:05;100346.97;;;-3.70;100.00
51781;BME280;37844;57.126;24.288;2023-01-05T08:47:31;100344.06;;;-3.76;100.00
51781;BME280;37844;57.126;24.288;2023-01-05T08:49:56;100355.75;;;-3.63;100.00
51781;BME280;37844;57.126;24.288;2023-01-05T08:52:21;100364.59;;;-3.56;100.00
51781;BME280;37844;57.126;24.288;2023-01-05T08:54:47;100362.75;;;-3.59;100.00
51781;BME280;37844;57.126;24.288;2023-01-05T08:57:13;100368.19;;;-3.53;100.00
51781;BME280;37844;57.126;24.288;2023-01-05T08:59:39;100366.81;;;-3.48;100.00
51781;BME280;37844;57.126;24.288;2023-01-05T09:02:05;100360.31;;;-3.44;100.00
51781;BME280;37844;57.126;24.288;2023-01-05T09:04:31;100366.53;;;-3.39;100.00
51781;BME280;37844;57.126;24.288;2023-01-05T09:06:56;100361.97;;;-3.45;100.00
51781;BME280;37844;57.126;24.288;2023-01-05T09:09:22;100391.72;;;-3.52;100.00
51781;BME280;37844;57.126;24.288;2023-01-05T09:11:49;100364.81;;;-3.53;100.00
51781;BME280;37844;57.126;24.288;2023-01-05T09:14:14;100372.16;;;-3.43;100.00
51781;BME280;37844;57.126;24.288;2023-01-05T09:16:40;100376.09;;;-3.47;100.00
51781;BME280;37844;57.126;24.288;2023-01-05T09:19:05;100382.06;;;-3.46;100.00
51781;BME280;37844;57.126;24.288;2023-01-05T09:21:31;100395.72;;;-3.56;100.00
51781;BME280;37844;57.126;24.288;2023-01-05T09:23:57;100380.97;;;-3.63;100.00
51781;BME280;37844;57.126;24.288;2023-01-05T09:26:22;100400.53;;;-3.72;100.00
51781;BME280;37844;57.126;24.288;2023-01-05T09:28:48;100392.59;;;-3.78;100.00
51781;BME280;37844;57.126;24.288;2023-01-05T09:31:21;100394.00;;;-3.82;100.00
51781;BME280;37844;57.126;24.288;2023-01-05T09:33:47;100395.97;;;-3.78;100.00
51781;BME280;37844;57.126;24.288;2023-01-05T09:36:14;100418.50;;;-3.93;100.00
51781;BME280;37844;57.126;24.288;2023-01-05T09:38:39;100437.41;;;-3.86;100.00
51781;BME280;37844;57.126;24.288;2023-01-05T09:43:40;100455.78;;;-4.00;100.00
51781;BME280;37844;57.126;24.288;2023-01-05T09:46:14;100438.91;;;-4.01;100.00
51781;BME280;37844;57.126;24.288;2023-01-05T09:48:44;100435.41;;;-4.17;100.00
51781;BME280;37844;57.126;24.288;2023-01-05T09:51:11;100447.88;;;-4.18;100.00
51781;BME280;37844;57.126;24.288;2023-01-05T09:53:40;100459.91;;;-4.14;100.00
51781;BME280;37844;57.126;24.288;2023-01-05T09:56:27;100463.25;;;-4.27;100.00
51781;BME280;37844;57.126;24.288;2023-01-05T09:59:03;100459.50;;;-4.32;100.00
51781;BME280;37844;57.126;24.288;2023-01-05T10:01:32;100446.03;;;-4.46;100.00
51781;BME280;37844;57.126;24.288;2023-01-05T10:04:08;100445.69;;;-4.39;100.00
51781;BME280;37844;57.126;24.288;2023-01-05T10:06:38;100457.22;;;-4.29;100.00
51781;BME280;37844;57.126;24.288;2023-01-05T10:09:06;100472.22;;;-4.31;100.00
51781;BME280;37844;57.126;24.288;2023-01-05T10:11:56;100472.31;;;-4.29;100.00
51781;BME280;37844;57.126;24.288;2023-01-05T10:14:52;100471.38;;;-4.43;100.00
51781;BME280;37844;57.126;24.288;2023-01-05T10:17:20;100470.06;;;-4.38;100.00
51781;BME280;37844;57.126;24.288;2023-01-05T10:19:47;100506.16;;;-4.49;100.00
51781;BME280;37844;57.126;24.288;2023-01-05T10:28:17;100497.69;;;-4.75;100.00
51781;BME280;37844;57.126;24.288;2023-01-05T10:31:00;100497.47;;;-4.66;100.00
51781;BME280;37844;57.126;24.288;2023-01-05T10:36:23;100508.66;;;-4.74;100.00
51781;BME280;37844;57.126;24.288;2023-01-05T10:39:11;100495.09;;;-4.76;100.00
51781;BME280;37844;57.126;24.288;2023-01-05T10:47:09;100504.63;;;-4.84;100.00
51781;BME280;37844;57.126;24.288;2023-01-05T10:49:41;100508.41;;;-4.89;100.00
51781;BME280;37844;57.126;24.288;2023-01-05T10:52:13;100515.75;;;-4.80;100.00
51781;BME280;37844;57.126;24.288;2023-01-05T10:54:58;100467.91;;;-5.41;100.00
51781;BME280;37844;57.126;24.288;2023-01-05T10:57:38;100533.31;;;-5.27;100.00
51781;BME280;37844;57.126;24.288;2023-01-05T11:00:18;100521.41;;;-5.30;100.00
51781;BME280;37844;57.126;24.288;2023-01-05T11:03:00;100526.47;;;-5.18;100.00
51781;BME280;37844;57.126;24.288;2023-01-05T11:05:40;100528.53;;;-5.13;100.00
51781;BME280;37844;57.126;24.288;2023-01-05T11:08:18;100550.50;;;-5.22;100.00
51781;BME280;37844;57.126;24.288;2023-01-05T11:11:03;100525.59;;;-5.19;100.00
51781;BME280;37844;57.126;24.288;2023-01-05T11:13:38;100554.22;;;-5.17;100.00
51781;BME280;37844;57.126;24.288;2023-01-05T11:21:23;100551.13;;;-5.36;100.00
51781;BME280;37844;57.126;24.288;2023-01-05T11:23:50;100566.97;;;-5.25;100.00
51781;BME280;37844;57.126;24.288;2023-01-05T11:26:33;100560.63;;;-5.32;100.00
51781;BME280;37844;57.126;24.288;2023-01-05T11:31:43;100612.56;;;-5.55;100.00
51781;BME280;37844;57.126;24.288;2023-01-05T11:42:16;100605.38;;;-5.50;100.00
51781;BME280;37844;57.126;24.288;2023-01-05T11:44:47;100619.34;;;-5.42;100.00
51781;BME280;37844;57.126;24.288;2023-01-05T11:50:17;100630.88;;;-5.56;100.00
51781;BME280;37844;57.126;24.288;2023-01-05T11:52:50;100630.31;;;-5.63;100.00
51781;BME280;37844;57.126;24.288;2023-01-05T11:55:37;100638.00;;;-5.72;100.00
51781;BME280;37844;57.126;24.288;2023-01-05T11:58:25;100640.78;;;-5.69;100.00
51781;BME280;37844;57.126;24.288;2023-01-05T12:14:42;100651.16;;;-5.86;100.00
51781;BME280;37844;57.126;24.288;2023-01-05T12:17:15;100659.94;;;-5.81;100.00
51781;BME280;37844;57.126;24.288;2023-01-05T12:22:45;100683.63;;;-5.56;100.00
51781;BME280;37844;57.126;24.288;2023-01-05T12:30:47;100702.94;;;-5.33;100.00
51781;BME280;37844;57.126;24.288;2023-01-05T12:41:52;100725.91;;;-5.50;100.00
51781;BME280;37844;57.126;24.288;2023-01-05T12:44:40;100733.84;;;-5.56;100.00
51781;BME280;37844;57.126;24.288;2023-01-05T12:47:16;100742.84;;;-5.69;100.00
51781;BME280;37844;57.126;24.288;2023-01-05T12:49:54;100743.34;;;-5.95;100.00
51781;BME280;37844;57.126;24.288;2023-01-05T12:52:44;100749.78;;;-6.09;100.00
51781;BME280;37844;57.126;24.288;2023-01-05T12:55:28;100768.72;;;-6.13;100.00
51781;BME280;37844;57.126;24.288;2023-01-05T12:58:19;100778.81;;;-6.33;100.00
51781;BME280;37844;57.126;24.288;2023-01-05T13:00:47;100772.53;;;-6.38;100.00
51781;BME280;37844;57.126;24.288;2023-01-05T13:03:21;100782.94;;;-6.44;100.00
51781;BME280;37844;57.126;24.288;2023-01-05T13:05:59;100781.72;;;-6.49;100.00
51781;BME280;37844;57.126;24.288;2023-01-05T13:11:34;100791.63;;;-6.71;100.00
51781;BME280;37844;57.126;24.288;2023-01-05T13:14:15;100803.28;;;-6.62;100.00
51781;BME280;37844;57.126;24.288;2023-01-05T13:16:45;100808.00;;;-6.65;100.00
51781;BME280;37844;57.126;24.288;2023-01-05T13:22:13;100834.09;;;-6.63;100.00
51781;BME280;37844;57.126;24.288;2023-01-05T13:24:50;100826.56;;;-6.73;100.00
51781;BME280;37844;57.126;24.288;2023-01-05T13:27:16;100839.63;;;-6.67;100.00
51781;BME280;37844;57.126;24.288;2023-01-05T13:29:45;100829.19;;;-6.82;100.00
51781;BME280;37844;57.126;24.288;2023-01-05T13:49:05;100897.59;;;-6.83;100.00
51781;BME280;37844;57.126;24.288;2023-01-05T13:52:01;100905.75;;;-6.85;100.00
51781;BME280;37844;57.126;24.288;2023-01-05T13:54:34;100906.63;;;-6.85;100.00
51781;BME280;37844;57.126;24.288;2023-01-05T13:57:09;100917.97;;;-6.98;100.00
51781;BME280;37844;57.126;24.288;2023-01-05T13:59:47;100912.47;;;-7.05;100.00
51781;BME280;37844;57.126;24.288;2023-01-05T14:04:50;100937.13;;;-7.09;100.00
51781;BME280;37844;57.126;24.288;2023-01-05T14:07:16;100938.50;;;-7.03;100.00
51781;BME280;37844;57.126;24.288;2023-01-05T14:09:45;100952.13;;;-7.09;100.00
51781;BME280;37844;57.126;24.288;2023-01-05T14:17:54;100963.47;;;-7.23;100.00
51781;BME280;37844;57.126;24.288;2023-01-05T14:20:48;100976.66;;;-7.15;100.00
51781;BME280;37844;57.126;24.288;2023-01-05T14:25:56;100984.31;;;-7.14;100.00
51781;BME280;37844;57.126;24.288;2023-01-05T14:34:05;100988.50;;;-7.23;100.00
51781;BME280;37844;57.126;24.288;2023-01-05T14:39:44;100992.66;;;-7.23;100.00
51781;BME280;37844;57.126;24.288;2023-01-05T14:44:59;101006.84;;;-7.33;100.00
51781;BME280;37844;57.126;24.288;2023-01-05T14:47:39;101012.59;;;-7.34;100.00
51781;BME280;37844;57.126;24.288;2023-01-05T14:50:23;101003.84;;;-7.29;100.00
51781;BME280;37844;57.126;24.288;2023-01-05T14:52:54;101022.75;;;-7.32;100.00
51781;BME280;37844;57.126;24.288;2023-01-05T14:55:27;101024.28;;;-7.24;100.00
51781;BME280;37844;57.126;24.288;2023-01-05T14:57:55;101030.00;;;-7.16;100.00
51781;BME280;37844;57.126;24.288;2023-01-05T15:05:53;101050.91;;;-7.35;100.00
51781;BME280;37844;57.126;24.288;2023-01-05T15:13:56;101051.22;;;-7.40;100.00
51781;BME280;37844;57.126;24.288;2023-01-05T15:28:15;101085.28;;;-7.70;100.00
51781;BME280;37844;57.126;24.288;2023-01-05T15:36:32;101105.59;;;-7.67;100.00